Eastern, Kentucky
Current Conditions -  °F | °C
As of 8:55 AM on Monday 24 Nov 2014 (Local Time) from KPBX Reporting Station
Clear Clear  
Wind Chill: 64°   Ceiling: Unl
Heat Index: 64°   Visibility: 10mi
Dew Point: 46°   Wind: 8mph
Humidity: 53%   Direction: 200°SSW
Pressure: 29.56"   Gusts: 20mph
Location:  37.52°N, 82.81°W
Report Text: KPBX 241355Z AUTO 20007G17KT 10SM CLR 18/08 A2956 RMK AO2 T01770079
Loading
Personal Weather Stations






























Interactive Weather Map New forecast layout! Learn more

10-Day Weather Forecast

Advertisements
Track Severe Weather on mobile